首页
METAR-TAF:

METAR-TAF

机场 :

巴特那, 印度

纬度: 25-36N, 经度: 085-06E, 海拔: 51米

当前天气观测

该预报发布于26分钟前的00:30 UTC
风速2节,风向东北
温度 31°C
湿度 89%
气压 998 hPa
能見度: 3500
少量云层高于2000英尺
散云层高于10000英尺
轻雾

METAR: VEPT 170030Z 05002KT 3500 BR FEW020 SCT100 31/29 Q0998 BECMG 3000 BR

时间: 06:26 (00:56 UTC)

预报

该预报发布于1小时和56分钟前的23:00 UTC
预报有效从17日的 00点(UTC)到 18日的 06点(UTC)
风速10节,风向
能見度: 2500
少量云层高于2000英尺
散云层高于10000英尺
轻雾
成为
从 17日的 04点(UTC)到 17日的 06点(UTC)
能見度: 4000
成为
从 17日的 08点(UTC)到 17日的 10点(UTC)
能見度: 5000
散云层高于2000英尺
多云层高于10000英尺
成为
从 17日的 16点(UTC)到 17日的 18点(UTC)
能見度: 4000
少量云层高于2000英尺
散云层高于10000英尺
成为
从 17日的 23点(UTC)到 18日的 01点(UTC)
能見度: 2500
轻雾
成为
从 18日的 04点(UTC)到 18日的 06点(UTC)
能見度: 4000
散云层高于10000英尺
霾,

TAF: VEPT 162300Z 1700/1806 09010KT 2500 BR FEW020 SCT100 BECMG 1704/1706 4000 HZ BECMG 1708/1710 5000 HZ SCT020 BKN100 BECMG 1716/1718 4000 HZ FEW020 SCT100 BECMG 1723/1801 2500 BR BECMG 1804/1806 4000 HZ SCT100

超过4000个机场的气象观测和天气预报(METAR&TAF报告)。

可查询的气象台以黄色和红色小点在地图上表示。

将鼠标移到小点上方,可查看气象台名称。

然后点击查看天气观测和预报。

如需切换地图:点击带黑十字的绿色按钮放大地图;点击带横线的绿色按钮缩小地图;或者点击绿色箭头查看邻近地区的地图。


METAR-TAF: